createdAt,value
2018-06-08T00:01:03.213Z,13.00
2018-06-08T00:03:35.233Z,13.00
2018-06-08T00:06:07.775Z,13.00
2018-06-08T00:08:40.166Z,13.00
2018-06-08T00:11:12.699Z,12.90
2018-06-08T00:13:44.579Z,12.90
2018-06-08T00:16:15.907Z,12.90
2018-06-08T00:18:47.013Z,12.90
2018-06-08T00:21:19.485Z,12.90
2018-06-08T00:23:51.831Z,12.90
2018-06-08T00:26:22.983Z,12.80
2018-06-08T00:28:54.386Z,12.70
2018-06-08T00:31:26.265Z,12.70
2018-06-08T00:33:58.347Z,12.70
2018-06-08T00:36:29.469Z,12.60
2018-06-08T00:39:00.651Z,12.50
2018-06-08T00:41:32.710Z,12.50
2018-06-08T00:44:05.396Z,12.40
2018-06-08T00:46:37.370Z,12.40
2018-06-08T00:49:08.770Z,12.40
2018-06-08T00:51:40.712Z,12.40
2018-06-08T00:54:12.591Z,12.40
2018-06-08T00:56:54.329Z,12.40
2018-06-08T00:59:26.023Z,12.30
2018-06-08T01:01:58.109Z,12.30
2018-06-08T01:04:29.583Z,12.20
2018-06-08T01:07:00.763Z,12.10
2018-06-08T01:09:32.625Z,12.10
2018-06-08T01:12:04.444Z,12.00
2018-06-08T01:14:35.775Z,12.00
2018-06-08T01:17:06.989Z,12.00
2018-06-08T01:19:38.977Z,11.90
2018-06-08T01:22:10.409Z,11.90
2018-06-08T01:24:41.649Z,11.90
2018-06-08T01:27:12.843Z,11.90
2018-06-08T01:29:44.777Z,11.90
2018-06-08T01:32:15.859Z,11.80
2018-06-08T01:34:47.025Z,11.70
2018-06-08T01:37:18.805Z,11.70
2018-06-08T01:39:50.593Z,11.60
2018-06-08T01:42:21.516Z,11.60
2018-06-08T01:44:52.763Z,11.70
2018-06-08T01:47:24.490Z,11.70
2018-06-08T01:49:56.429Z,11.70
2018-06-08T01:52:27.683Z,11.70
2018-06-08T01:54:58.941Z,11.70
2018-06-08T01:57:30.947Z,11.60
2018-06-08T02:00:02.939Z,11.60
2018-06-08T02:02:35.032Z,11.60
2018-06-08T02:05:06.517Z,11.60
2018-06-08T02:07:38.273Z,11.60
2018-06-08T02:10:09.806Z,11.60
2018-06-08T02:12:40.897Z,11.60
2018-06-08T02:15:12.423Z,11.50
2018-06-08T02:17:44.151Z,11.40
2018-06-08T02:20:15.273Z,11.30
2018-06-08T02:22:46.419Z,11.30
2018-06-08T02:25:18.321Z,11.30
2018-06-08T02:27:50.882Z,11.30
2018-06-08T02:30:22.856Z,11.20
2018-06-08T02:32:54.242Z,11.10
2018-06-08T02:35:26.197Z,11.20
2018-06-08T02:37:58.212Z,11.20
2018-06-08T02:40:29.576Z,11.30
2018-06-08T02:43:00.770Z,11.30
2018-06-08T02:45:32.852Z,11.30
2018-06-08T02:48:05.016Z,11.30
2018-06-08T02:50:36.135Z,11.20
2018-06-08T02:53:07.450Z,11.20
2018-06-08T02:55:40.970Z,11.20
2018-06-08T02:58:12.416Z,11.20
2018-06-08T03:00:43.799Z,11.10
2018-06-08T03:03:15.726Z,11.10
2018-06-08T03:05:47.595Z,11.10
2018-06-08T03:08:18.918Z,11.20
2018-06-08T03:10:50.228Z,11.10
2018-06-08T03:13:22.178Z,11.10
2018-06-08T03:15:53.988Z,11.10
2018-06-08T03:18:25.126Z,11.10
2018-06-08T03:20:56.352Z,11.20
2018-06-08T03:23:28.226Z,11.20
2018-06-08T03:26:00.208Z,11.20
2018-06-08T03:28:31.374Z,11.20
2018-06-08T03:31:02.867Z,11.20
2018-06-08T03:33:34.680Z,11.30
2018-06-08T03:36:06.674Z,11.30
2018-06-08T03:38:37.982Z,11.30
2018-06-08T03:41:09.274Z,11.40
2018-06-08T03:43:41.158Z,11.40
2018-06-08T03:46:12.580Z,11.50
2018-06-08T03:48:43.702Z,11.60
2018-06-08T03:51:16.220Z,11.70
2018-06-08T03:53:48.010Z,11.80
2018-06-08T03:56:19.197Z,12.10
2018-06-08T03:58:50.494Z,12.80
2018-06-08T04:01:21.830Z,13.40
2018-06-08T04:03:53.842Z,13.90
2018-06-08T04:06:25.162Z,14.40
2018-06-08T04:08:56.387Z,14.50
2018-06-08T04:11:28.428Z,14.20
2018-06-08T04:14:00.583Z,14.00
2018-06-08T04:16:32.354Z,13.80
2018-06-08T04:19:03.797Z,13.70
2018-06-08T04:21:35.771Z,13.60
2018-06-08T04:24:08.317Z,13.60
2018-06-08T04:26:40.756Z,13.60
2018-06-08T04:29:12.257Z,13.70
2018-06-08T04:31:44.200Z,13.80
2018-06-08T04:34:15.556Z,13.90
2018-06-08T04:36:48.155Z,13.90
2018-06-08T04:39:20.856Z,14.00
2018-06-08T04:41:53.572Z,14.10
2018-06-08T04:44:26.054Z,14.30
2018-06-08T04:46:57.372Z,14.40
2018-06-08T04:49:29.430Z,14.50
2018-06-08T04:52:01.688Z,14.70
2018-06-08T04:54:33.104Z,14.90
2018-06-08T04:57:06.148Z,15.00
2018-06-08T04:59:38.233Z,15.10
2018-06-08T05:02:09.907Z,15.30
2018-06-08T05:04:41.406Z,15.50
2018-06-08T05:07:12.956Z,16.40
2018-06-08T05:09:45.150Z,17.50
2018-06-08T05:12:16.864Z,18.60
2018-06-08T05:14:49.063Z,19.60
2018-06-08T05:17:22.198Z,20.40
2018-06-08T05:19:54.859Z,21.10
2018-06-08T05:22:26.924Z,21.80
2018-06-08T05:24:58.853Z,22.20
2018-06-08T05:27:31.617Z,22.70
2018-06-08T05:30:08.570Z,23.10
2018-06-08T05:32:40.694Z,23.50
2018-06-08T05:35:12.600Z,23.80
2018-06-08T05:37:44.988Z,24.10
2018-06-08T05:40:17.274Z,24.40
2018-06-08T05:42:49.480Z,24.60
2018-06-08T05:45:22.089Z,24.80
2018-06-08T05:47:54.735Z,25.00
2018-06-08T05:50:26.630Z,25.30
2018-06-08T05:52:58.646Z,25.30
2018-06-08T05:55:31.480Z,25.30
2018-06-08T05:58:04.044Z,25.30
2018-06-08T06:00:37.636Z,25.50
2018-06-08T06:03:09.792Z,25.70
2018-06-08T06:05:42.599Z,25.80
2018-06-08T06:08:16.335Z,25.90
2018-06-08T06:10:48.263Z,25.80
2018-06-08T06:13:20.824Z,25.70
2018-06-08T06:15:53.810Z,25.70
2018-06-08T06:18:25.827Z,25.50
2018-06-08T06:20:57.819Z,25.80
2018-06-08T06:23:30.790Z,25.80
2018-06-08T06:26:03.610Z,25.80
2018-06-08T06:28:35.798Z,25.90
2018-06-08T06:31:07.702Z,26.10
2018-06-08T06:33:40.591Z,26.40
2018-06-08T06:36:12.687Z,26.70
2018-06-08T06:38:44.876Z,26.80
2018-06-08T06:41:17.667Z,27.00
2018-06-08T06:43:50.468Z,27.20
2018-06-08T06:46:22.860Z,27.40
2018-06-08T06:48:54.722Z,27.50
2018-06-08T06:51:27.372Z,27.90
2018-06-08T06:54:00.017Z,28.10
2018-06-08T06:56:31.818Z,28.20
2018-06-08T06:59:03.481Z,28.10
2018-06-08T07:01:36.171Z,27.90
2018-06-08T07:04:09.018Z,27.00
2018-06-08T07:06:40.982Z,26.30
2018-06-08T07:09:13.021Z,25.70
2018-06-08T07:11:45.664Z,25.10
2018-06-08T07:14:17.812Z,24.90
2018-06-08T07:16:50.156Z,24.80
2018-06-08T07:19:22.714Z,24.80
2018-06-08T07:21:55.444Z,24.70
2018-06-08T07:24:28.401Z,24.70
2018-06-08T07:27:00.406Z,25.00
2018-06-08T07:29:33.226Z,25.10
2018-06-08T07:32:05.998Z,25.40
2018-06-08T07:34:37.982Z,26.00
2018-06-08T07:37:09.968Z,26.70
2018-06-08T07:39:42.584Z,27.40
2018-06-08T07:42:15.304Z,28.10
2018-06-08T07:44:46.876Z,28.80
2018-06-08T07:47:19.669Z,29.40
2018-06-08T07:49:51.949Z,29.70
2018-06-08T07:52:23.664Z,29.90
2018-06-08T07:54:55.353Z,30.20
2018-06-08T07:57:27.574Z,30.40
2018-06-08T08:00:00.127Z,30.30
2018-06-08T08:02:31.386Z,30.50
2018-06-08T08:05:03.621Z,30.30
2018-06-08T08:07:35.957Z,29.80
2018-06-08T08:10:08.315Z,29.40
2018-06-08T08:12:39.916Z,28.50
2018-06-08T08:15:12.697Z,28.20
2018-06-08T08:17:45.428Z,28.20
2018-06-08T08:20:17.324Z,28.60
2018-06-08T08:22:48.899Z,28.70
2018-06-08T08:25:21.148Z,28.90
2018-06-08T08:27:53.607Z,28.90
2018-06-08T08:30:25.342Z,29.30
2018-06-08T08:32:56.918Z,29.90
2018-06-08T08:35:29.313Z,30.20
2018-06-08T08:38:01.775Z,29.70
2018-06-08T08:40:33.276Z,29.70
2018-06-08T08:43:04.770Z,29.70
2018-06-08T08:45:36.881Z,29.80
2018-06-08T08:48:09.648Z,29.60
2018-06-08T08:50:41.534Z,29.40
2018-06-08T08:53:13.200Z,29.20
2018-06-08T08:55:45.734Z,29.10
2018-06-08T08:58:17.600Z,29.10
2018-06-08T09:00:50.143Z,29.40
2018-06-08T09:03:22.366Z,29.60
2018-06-08T09:05:54.576Z,29.80
2018-06-08T09:08:26.568Z,29.70
2018-06-08T09:10:58.163Z,29.90
2018-06-08T09:13:30.424Z,29.90
2018-06-08T09:16:02.876Z,30.00
2018-06-08T09:18:35.633Z,30.50
2018-06-08T09:21:07.184Z,30.90
2018-06-08T09:23:39.508Z,30.90
2018-06-08T09:26:11.480Z,30.90
2018-06-08T09:28:43.089Z,30.90
2018-06-08T09:31:15.955Z,30.70
2018-06-08T09:33:48.690Z,30.70
2018-06-08T09:36:20.485Z,30.80
2018-06-08T09:38:53.605Z,30.90
2018-06-08T09:41:26.065Z,30.70
2018-06-08T09:43:58.328Z,30.50
2018-06-08T09:46:30.047Z,30.70
2018-06-08T09:49:02.038Z,30.80
2018-06-08T09:51:35.817Z,30.80
2018-06-08T09:54:08.933Z,31.00
2018-06-08T09:56:40.220Z,31.20
2018-06-08T09:59:12.091Z,31.10
2018-06-08T10:01:46.075Z,30.80
2018-06-08T10:04:18.103Z,31.00
2018-06-08T10:06:50.243Z,31.10
2018-06-08T10:09:22.647Z,31.20
2018-06-08T10:11:55.057Z,30.80
2018-06-08T10:14:26.613Z,30.70
2018-06-08T10:16:58.843Z,30.40
2018-06-08T10:19:31.116Z,30.30
2018-06-08T10:22:03.516Z,30.30
2018-06-08T10:24:35.465Z,30.60
2018-06-08T10:27:08.184Z,30.80
2018-06-08T10:29:40.775Z,30.70
2018-06-08T10:32:13.094Z,30.70
2018-06-08T10:34:45.064Z,30.70
2018-06-08T10:37:16.811Z,30.60
2018-06-08T10:39:49.357Z,31.00
2018-06-08T10:42:21.064Z,31.40
2018-06-08T10:44:54.888Z,31.60
2018-06-08T10:47:27.825Z,32.00
2018-06-08T10:50:00.478Z,32.20
2018-06-08T10:52:35.734Z,32.10
2018-06-08T10:55:08.721Z,31.60
2018-06-08T10:57:41.450Z,31.20
2018-06-08T11:00:12.889Z,31.30
2018-06-08T11:02:44.745Z,31.30
2018-06-08T11:05:18.609Z,31.00
2018-06-08T11:07:51.035Z,31.00
2018-06-08T11:10:22.829Z,31.30
2018-06-08T11:12:55.847Z,31.60
2018-06-08T11:15:28.795Z,31.80
2018-06-08T11:18:01.209Z,31.90
2018-06-08T11:20:36.423Z,32.00
2018-06-08T11:23:08.187Z,32.10
2018-06-08T11:25:40.745Z,32.40
2018-06-08T11:28:12.789Z,32.10
2018-06-08T11:30:44.737Z,31.40
2018-06-08T11:33:18.039Z,31.00
2018-06-08T11:35:51.861Z,30.70
2018-06-08T11:38:25.144Z,30.60
2018-06-08T11:40:57.022Z,30.40
2018-06-08T11:43:29.705Z,30.20
2018-06-08T11:46:03.094Z,29.70
2018-06-08T11:48:38.755Z,29.10
2018-06-08T11:56:19.464Z,28.50
2018-06-08T11:58:54.307Z,28.40
2018-06-08T12:01:28.844Z,29.10
2018-06-08T12:04:07.631Z,28.60
2018-06-08T12:06:39.528Z,28.00
2018-06-08T12:09:20.226Z,27.80
2018-06-08T12:11:54.360Z,28.10
2018-06-08T12:14:35.873Z,28.30
2018-06-08T12:17:08.855Z,28.70
2018-06-08T12:19:40.018Z,29.10
2018-06-08T12:22:11.813Z,29.30
2018-06-08T12:24:46.647Z,29.30
2018-06-08T12:27:20.184Z,28.90
2018-06-08T12:30:02.282Z,28.30
2018-06-08T12:32:34.532Z,28.20
2018-06-08T12:35:06.890Z,28.70
2018-06-08T12:37:42.552Z,29.10
2018-06-08T12:42:45.828Z,28.80
2018-06-08T12:45:18.010Z,28.40
2018-06-08T12:47:52.494Z,28.10
2018-06-08T12:50:26.120Z,28.00
2018-06-08T12:52:58.573Z,27.90
2018-06-08T12:55:31.216Z,28.30
2018-06-08T12:58:03.333Z,28.40
2018-06-08T13:00:35.388Z,28.30
2018-06-08T13:03:07.469Z,28.40
2018-06-08T13:05:40.705Z,28.70
2018-06-08T13:08:11.586Z,29.10
2018-06-08T13:10:43.358Z,29.30
2018-06-08T13:13:15.122Z,29.50
2018-06-08T13:15:48.372Z,29.70
2018-06-08T13:18:21.242Z,30.10
2018-06-08T13:20:54.336Z,30.40
2018-06-08T13:23:27.210Z,30.60
2018-06-08T13:26:00.251Z,30.80
2018-06-08T13:28:32.660Z,30.40
2018-06-08T13:31:03.772Z,30.10
2018-06-08T13:33:39.522Z,29.60
2018-06-08T13:36:25.314Z,29.00
2018-06-08T13:38:57.714Z,28.60
2018-06-08T13:41:31.956Z,28.40
2018-06-08T13:44:03.983Z,28.60
2018-06-08T13:46:44.620Z,28.80
2018-06-08T13:49:18.177Z,29.10
2018-06-08T13:51:52.291Z,29.30
2018-06-08T13:54:25.847Z,29.60
2018-06-08T13:56:56.788Z,29.70
2018-06-08T13:59:29.325Z,29.50
2018-06-08T14:02:03.822Z,29.70
2018-06-08T14:04:36.537Z,29.80
2018-06-08T14:07:08.747Z,29.90
2018-06-08T14:09:42.249Z,29.70
2018-06-08T14:12:14.348Z,29.80
2018-06-08T14:14:48.938Z,29.80
2018-06-08T14:17:20.583Z,29.70
2018-06-08T14:19:54.263Z,29.70
2018-06-08T14:22:27.097Z,29.60
2018-06-08T14:25:00.864Z,29.60
2018-06-08T14:27:33.345Z,29.50
2018-06-08T14:30:05.684Z,29.30
2018-06-08T14:32:37.687Z,29.00
2018-06-08T14:35:12.872Z,28.80
2018-06-08T14:37:44.740Z,28.80
2018-06-08T14:40:16.515Z,28.60
2018-06-08T14:42:48.848Z,28.60
2018-06-08T14:45:22.337Z,28.50
2018-06-08T14:47:54.439Z,28.50
2018-06-08T14:50:27.633Z,28.50
2018-06-08T14:52:59.855Z,28.40
2018-06-08T14:55:32.526Z,28.50
2018-06-08T14:58:05.620Z,28.40
2018-06-08T15:00:38.693Z,28.50
2018-06-08T15:03:12.703Z,28.80
2018-06-08T15:05:45.800Z,28.90
2018-06-08T15:08:18.110Z,29.00
2018-06-08T15:10:50.237Z,28.90
2018-06-08T15:13:23.869Z,28.90
2018-06-08T15:15:55.955Z,28.80
2018-06-08T15:18:28.088Z,28.70
2018-06-08T15:23:40.476Z,28.20
2018-06-08T15:26:17.708Z,28.10
2018-06-08T15:28:49.720Z,28.10
2018-06-08T15:31:22.308Z,28.10
2018-06-08T15:33:54.908Z,28.10
2018-06-08T15:36:27.404Z,28.20
2018-06-08T15:38:59.392Z,28.40
2018-06-08T15:41:32.937Z,28.40
2018-06-08T15:44:05.008Z,28.50
2018-06-08T15:46:37.052Z,28.60
2018-06-08T15:49:09.531Z,28.70
2018-06-08T15:51:43.408Z,28.60
2018-06-08T15:54:16.780Z,28.60
2018-06-08T15:56:49.242Z,28.70
